Disclaimer

Please do not use the information listed here in-flight or in-navigation, as they are not provided to us by the airports but are provided by volunteers, so they might be outdated.

Search


Regions


Airport information page

Radio informations:
Common traffic adv. frequency (CTAF) - 122.8 MHz

Airport informations:
Latitude: 28° 20' 06.69" N
Longitude: 046° 07' 30.25" E
Elevation: 1174 feet - 358 meters
Operating hours: 24 hour operations
Operating agency: Civil government, landing fees and diplomatic clearance may be required
Timezone: UTC+3
Fuel: JP-4, Wide cut turbine fuel MIL Spec T-5624

Jet A1, without icing nhibitor.

Runway information:
16/34 - 9843 x 148 feet< - >3000 x 45 meters

Recent METARs:
OEPA 211900Z 00000KT 9999 FEW035 16/08 Q1020 NOSIG
OEPA 211900Z 00000KT 9999 FEW035 16/08 Q1020 NOSIG
OEPA 212000Z 00000KT CAVOK 16/08 Q1020 NOSIG

Airport on the map: